Time;durP1;ratioP1;P1;durP2;ratioP2;P2;SDS_P1;SDS_P2;PMS_P1;PMS_P2;Temp;Humidity;BMP_temperature;BMP_pressure;BME280_temperature;BME280_humidity;BME280_pressure;Samples;Min_cycle;Max_cycle;Signal;HPM_P1;HPM_P2
2021/07/15 00:00:23;;;;;;;15.28;9.10;;;;;;;23.21;78.77;100225.03;5217433;55;1140782;-82
2021/07/15 00:05:32;;;;;;;18.82;8.68;;;;;;;23.17;78.28;100233.74;5214201;55;1140860;-81
2021/07/15 00:10:57;;;;;;;21.73;8.53;;;;;;;23.03;77.82;100225.65;5195512;55;1141021;-83
2021/07/15 00:16:08;;;;;;;20.10;9.05;;;;;;;23.06;78.56;100231.98;5074508;56;1140972;-79
2021/07/15 00:21:16;;;;;;;28.17;9.15;;;;;;;23.19;78.78;100233.02;5074749;56;1140981;-84
2021/07/15 00:26:25;;;;;;;23.15;9.23;;;;;;;23.25;78.37;100236.22;5080121;56;1140997;-79
2021/07/15 00:31:31;;;;;;;22.48;8.10;;;;;;;23.15;77.63;100263.63;5073482;56;1140864;-84
2021/07/15 00:36:36;;;;;;;22.07;10.05;;;;;;;22.99;77.39;100266.72;5069938;56;1140994;-84
2021/07/15 00:41:42;;;;;;;23.40;9.45;;;;;;;22.96;78.14;100234.77;5073152;56;1143114;-83
2021/07/15 00:46:48;;;;;;;27.17;10.20;;;;;;;22.98;78.17;100232.17;5047705;56;1140882;-81
2021/07/15 00:51:54;;;;;;;21.65;9.88;;;;;;;23.01;78.23;100239.03;5019304;56;1143107;-80
2021/07/15 00:57:00;;;;;;;18.80;9.60;;;;;;;23.00;78.15;100213.92;5019825;56;1140846;-80
2021/07/15 01:02:06;;;;;;;21.68;9.15;;;;;;;22.96;77.96;100208.62;5019049;56;1140850;-79
2021/07/15 01:07:12;;;;;;;23.46;9.44;;;;;;;22.89;77.82;100195.67;5019087;57;1141058;-80
2021/07/15 01:12:29;;;;;;;24.63;10.00;;;;;;;22.84;77.48;100191.41;5071527;56;1141014;-79
2021/07/15 01:17:56;;;;;;;23.62;10.53;;;;;;;22.61;77.57;100198.48;4912809;57;1143071;-80
2021/07/15 01:23:36;;;;;;;23.52;9.23;;;;;;;22.40;77.58;100204.05;4951093;57;1143116;-80
2021/07/15 01:29:13;;;;;;;23.25;9.00;;;;;;;22.35;78.42;100216.78;4996175;57;1141011;-81
2021/07/15 01:34:21;;;;;;;20.20;9.48;;;;;;;22.35;78.15;100218.12;4995650;57;1141066;-81
2021/07/15 01:39:30;;;;;;;20.05;10.35;;;;;;;22.18;78.61;100211.44;4995614;57;1141102;-78
2021/07/15 01:44:36;;;;;;;24.63;9.48;;;;;;;22.16;79.12;100214.01;4997082;57;1143114;-77
2021/07/15 01:49:43;;;;;;;26.55;9.98;;;;;;;22.17;79.10;100212.98;4996882;57;1141482;-79
2021/07/15 01:54:51;;;;;;;14.80;8.70;;;;;;;22.16;79.15;100209.97;5048752;56;1141139;-79
2021/07/15 01:59:59;;;;;;;20.72;9.78;;;;;;;22.24;79.31;100211.16;5103215;56;1140953;-81
2021/07/15 02:05:08;;;;;;;20.35;10.32;;;;;;;22.28;79.27;100213.25;5104145;57;1140959;-82
2021/07/15 02:10:19;;;;;;;24.12;9.00;;;;;;;22.25;79.17;100218.20;5087398;56;1143049;-80
2021/07/15 02:15:27;;;;;;;23.05;9.25;;;;;;;22.17;79.05;100217.85;4966986;57;1140860;-80
2021/07/15 02:20:34;;;;;;;21.33;8.88;;;;;;;22.15;79.15;100212.38;5018848;57;1140777;-81
2021/07/15 02:25:41;;;;;;;23.57;9.27;;;;;;;22.14;79.23;100217.45;5062567;56;1140962;-82
2021/07/15 02:30:51;;;;;;;19.98;9.63;;;;;;;22.08;79.31;100225.80;5097057;56;1140886;-81
2021/07/15 02:36:02;;;;;;;21.73;9.18;;;;;;;22.03;79.46;100224.22;5130235;56;1141073;-80
2021/07/15 02:41:08;;;;;;;21.48;10.63;;;;;;;22.00;79.51;100221.41;5127129;56;1140876;-82
2021/07/15 02:46:14;;;;;;;28.28;9.38;;;;;;;21.99;79.59;100248.53;5126772;56;1143030;-81
2021/07/15 02:51:19;;;;;;;17.82;9.05;;;;;;;21.97;79.58;100223.66;5126324;56;1141168;-79
2021/07/15 02:56:50;;;;;;;31.05;11.18;;;;;;;21.96;79.74;100216.09;5127768;56;1140814;-79
2021/07/15 03:02:22;;;;;;;35.10;10.28;;;;;;;21.87;79.75;100213.75;5126351;56;1143082;-81
2021/07/15 03:07:31;;;;;;;20.55;8.95;;;;;;;21.84;79.88;100222.25;5126416;56;1143120;-80
2021/07/15 03:12:40;;;;;;;26.85;9.28;;;;;;;21.83;80.04;100242.95;5132743;56;1141352;-82
2021/07/15 03:17:52;;;;;;;32.25;9.85;;;;;;;21.82;79.96;100241.30;5135402;56;1141015;-81
2021/07/15 03:23:03;;;;;;;23.03;9.60;;;;;;;21.76;80.09;100243.42;5135701;56;1141254;-81
2021/07/15 03:28:12;;;;;;;28.35;10.65;;;;;;;21.67;80.36;100240.58;5137270;55;1141307;-82
2021/07/15 03:33:21;;;;;;;28.85;9.30;;;;;;;21.63;80.73;100231.23;5136266;55;1143124;-80
2021/07/15 03:38:28;;;;;;;18.27;8.88;;;;;;;21.61;80.78;100230.08;5136092;55;1140847;-81
2021/07/15 03:43:36;;;;;;;29.70;9.30;;;;;;;21.65;80.94;100220.59;5136377;55;1140970;-81
2021/07/15 03:48:44;;;;;;;25.50;7.47;;;;;;;21.70;80.82;100217.28;5135394;55;1140914;-80
2021/07/15 03:53:51;;;;;;;27.17;8.13;;;;;;;21.68;80.47;100222.06;5219049;55;1140977;-82
2021/07/15 03:59:01;;;;;;;20.77;8.38;;;;;;;21.65;80.64;100224.63;5227687;55;1140887;-79
2021/07/15 04:04:08;;;;;;;16.75;7.03;;;;;;;21.64;80.66;100224.83;5226488;55;1140950;-79
2021/07/15 04:09:16;;;;;;;16.97;6.05;;;;;;;21.64;80.60;100216.23;5224673;55;1140960;-78
2021/07/15 04:14:50;;;;;;;29.67;6.70;;;;;;;21.64;80.53;100213.55;5157701;56;1140861;-81
2021/07/15 04:19:59;;;;;;;17.37;6.33;;;;;;;21.59;80.45;100213.81;5142451;56;1140961;-81
2021/07/15 04:25:07;;;;;;;22.73;6.85;;;;;;;21.52;80.58;100208.41;5155694;56;1140779;-83
2021/07/15 04:30:15;;;;;;;25.62;5.80;;;;;;;21.46;80.65;100215.91;5149129;56;1140945;-78
2021/07/15 04:35:22;;;;;;;14.38;6.15;;;;;;;21.47;80.80;100231.02;5147501;56;1140875;-81
2021/07/15 04:40:30;;;;;;;16.65;4.92;;;;;;;21.48;80.78;100235.89;5149032;56;1141034;-80
2021/07/15 04:45:40;;;;;;;22.10;6.28;;;;;;;21.52;80.75;100244.73;5150450;56;1141094;-79
2021/07/15 04:50:47;;;;;;;18.17;5.97;;;;;;;21.50;80.77;100247.30;5150208;56;1140901;-81
2021/07/15 04:55:56;;;;;;;17.57;5.40;;;;;;;21.45;80.94;100262.67;5115219;55;1141012;-84
2021/07/15 05:01:02;;;;;;;24.85;6.30;;;;;;;21.43;81.04;100262.55;5205642;55;1140859;-83
2021/07/15 05:06:09;;;;;;;19.70;5.87;;;;;;;21.45;81.28;100274.78;5237124;55;1141267;-81
2021/07/15 05:11:15;;;;;;;17.15;5.33;;;;;;;21.50;81.42;100280.94;5188559;55;1140928;-83
2021/07/15 05:16:23;;;;;;;19.52;6.10;;;;;;;21.55;81.46;100284.68;5238409;55;1140726;-80
2021/07/15 05:21:28;;;;;;;18.98;6.40;;;;;;;21.58;81.57;100284.30;5036925;57;1140955;-80
2021/07/15 05:26:34;;;;;;;17.77;5.70;;;;;;;21.57;81.54;100293.39;5053328;57;1140928;-82
2021/07/15 05:31:39;;;;;;;18.00;6.37;;;;;;;21.57;81.60;100285.32;5064849;56;1141098;-82
2021/07/15 05:36:45;;;;;;;20.13;5.30;;;;;;;21.61;81.80;100286.59;5051580;57;1142795;-81
2021/07/15 05:41:51;;;;;;;24.77;12.37;;;;;;;21.63;81.90;100281.86;5051324;57;1140962;-81
2021/07/15 05:46:57;;;;;;;23.15;7.08;;;;;;;21.64;81.88;100285.38;4977228;56;1143079;-81
2021/07/15 05:52:03;;;;;;;15.48;5.75;;;;;;;21.58;81.94;100269.49;5015148;56;1141363;-80
2021/07/15 05:57:10;;;;;;;23.00;5.90;;;;;;;21.59;81.94;100265.77;5050818;57;1141023;-80
2021/07/15 06:02:17;;;;;;;10.80;5.45;;;;;;;21.60;81.93;100253.16;5049431;57;1141226;-81
2021/07/15 06:07:22;;;;;;;26.42;9.08;;;;;;;21.58;82.06;100239.05;5048652;57;1140814;-83
2021/07/15 06:12:28;;;;;;;21.62;7.12;;;;;;;21.64;82.26;100247.70;5132917;55;1141041;-83
2021/07/15 06:17:35;;;;;;;21.88;8.46;;;;;;;21.72;82.36;100244.33;5186197;55;1140982;-80
2021/07/15 06:22:46;;;;;;;19.55;8.25;;;;;;;21.78;82.56;100241.36;5005809;57;1140937;-83
2021/07/15 06:27:52;;;;;;;21.87;9.33;;;;;;;21.80;82.32;100243.34;5005983;57;1140882;-81
2021/07/15 06:32:58;;;;;;;20.20;7.17;;;;;;;21.81;82.09;100236.10;5105363;56;1141062;-81
2021/07/15 06:38:03;;;;;;;15.58;7.22;;;;;;;21.78;81.94;100241.36;5147305;56;1140895;-84
2021/07/15 06:43:09;;;;;;;22.32;8.95;;;;;;;21.81;82.86;100243.66;5065565;56;1140789;-82
2021/07/15 06:48:15;;;;;;;24.02;9.75;;;;;;;21.72;82.40;100267.20;5072479;56;1140835;-79
2021/07/15 06:53:21;;;;;;;23.35;10.30;;;;;;;21.73;82.83;100259.45;5062945;56;1140857;-83
2021/07/15 06:58:31;;;;;;;22.13;10.13;;;;;;;21.82;82.86;100253.41;5062048;56;1143041;-82
2021/07/15 07:03:37;;;;;;;26.55;10.13;;;;;;;21.90;82.85;100250.54;5062809;56;1142941;-85
2021/07/15 07:08:43;;;;;;;20.05;9.43;;;;;;;21.89;82.55;100251.56;5127545;55;1142784;-81
2021/07/15 07:13:48;;;;;;;17.67;8.98;;;;;;;21.92;82.80;100244.95;5061670;56;1141010;-79
2021/07/15 07:18:54;;;;;;;24.18;9.38;;;;;;;21.95;83.08;100248.61;5051584;56;1140946;-80
2021/07/15 07:24:01;;;;;;;27.93;10.45;;;;;;;21.94;82.92;100237.00;5052061;56;1140845;-80
2021/07/15 07:29:07;;;;;;;22.05;11.03;;;;;;;21.95;82.75;100223.02;5051937;56;1143006;-79
2021/07/15 07:34:13;;;;;;;30.95;9.78;;;;;;;21.98;82.82;100229.36;5050084;56;1142897;-80
2021/07/15 07:39:19;;;;;;;18.25;10.65;;;;;;;22.06;83.10;100238.63;5050360;56;1140738;-80
2021/07/15 07:44:25;;;;;;;16.15;8.68;;;;;;;22.07;82.64;100238.44;5050533;56;1143070;-79
2021/07/15 07:49:30;;;;;;;21.95;11.20;;;;;;;22.09;83.17;100243.63;5095878;56;1141112;-79
2021/07/15 07:54:36;;;;;;;23.14;10.74;;;;;;;22.10;82.81;100254.20;5134190;56;1143104;-81
2021/07/15 07:59:42;;;;;;;24.25;10.03;;;;;;;22.18;83.08;100257.23;5108275;56;1143009;-79
2021/07/15 08:04:48;;;;;;;24.23;10.72;;;;;;;22.22;83.08;100257.16;5115371;57;1143107;-80
2021/07/15 08:09:54;;;;;;;19.77;10.35;;;;;;;22.30;83.14;100274.51;5128880;56;1143000;-79
2021/07/15 08:15:00;;;;;;;28.62;11.98;;;;;;;22.51;83.44;100278.08;5201304;56;1143049;-78
2021/07/15 08:20:10;;;;;;;30.23;13.93;;;;;;;22.59;82.57;100284.14;5201313;55;1143069;-78
2021/07/15 08:25:19;;;;;;;20.17;11.28;;;;;;;22.71;82.78;100286.56;5201340;56;1142897;-79
2021/07/15 08:30:24;;;;;;;26.38;12.68;;;;;;;22.77;82.12;100285.75;5201651;56;1142864;-80
2021/07/15 08:35:31;;;;;;;20.08;10.55;;;;;;;22.82;82.20;100291.89;5201266;56;1142875;-80
2021/07/15 08:40:38;;;;;;;21.95;12.47;;;;;;;22.99;82.37;100301.78;5201483;56;1143037;-81
2021/07/15 08:45:45;;;;;;;25.65;12.45;;;;;;;23.12;82.70;100312.59;5201355;56;1143000;-80
2021/07/15 08:50:51;;;;;;;16.62;12.00;;;;;;;23.26;82.29;100305.34;5201377;56;1142961;-80
2021/07/15 09:01:24;;;;;;;29.85;13.95;;;;;;;23.30;80.85;100315.52;5195995;55;1143000;-79
2021/07/15 09:06:30;;;;;;;24.07;13.22;;;;;;;23.34;80.48;100341.06;5200069;55;1142910;-80
2021/07/15 09:11:35;;;;;;;24.10;13.98;;;;;;;23.38;80.61;100355.80;5168868;55;1142793;-81
2021/07/15 09:16:55;;;;;;;21.17;14.80;;;;;;;23.44;80.40;100361.73;5125257;56;1142963;-81
2021/07/15 09:22:14;;;;;;;27.75;15.78;;;;;;;23.53;80.49;100377.77;5113307;56;1143106;-79
2021/07/15 09:27:23;;;;;;;32.28;17.30;;;;;;;23.61;80.06;100375.69;5178038;55;1143134;-79
2021/07/15 09:32:28;;;;;;;36.42;18.25;;;;;;;23.73;79.86;100388.88;4976923;57;1142847;-82
2021/07/15 09:37:39;;;;;;;29.82;19.57;;;;;;;23.75;79.29;100392.72;5211748;55;1143008;-79
2021/07/15 09:42:44;;;;;;;31.85;17.82;;;;;;;23.77;79.41;100383.37;4976980;57;1142875;-79
2021/07/15 09:47:50;;;;;;;42.55;20.55;;;;;;;23.81;78.97;100406.75;5211947;55;1143011;-80
2021/07/15 09:53:14;;;;;;;28.47;17.02;;;;;;;23.87;79.33;100406.42;4976686;57;1142958;-78
2021/07/15 09:58:23;;;;;;;35.75;19.92;;;;;;;23.87;79.05;100415.36;5211335;56;1142999;-78
2021/07/15 10:03:36;;;;;;;26.17;14.87;;;;;;;23.83;78.81;100422.23;4969697;57;1142848;-80
2021/07/15 10:08:44;;;;;;;26.52;13.98;;;;;;;23.80;78.78;100419.94;5178162;55;1144828;-81
2021/07/15 10:14:03;;;;;;;28.63;14.37;;;;;;;23.88;78.94;100434.58;5196199;56;1142995;-82
2021/07/15 10:19:19;;;;;;;33.35;13.88;;;;;;;24.00;79.11;100432.91;5189778;56;1143363;-81
2021/07/15 10:24:29;;;;;;;23.77;13.05;;;;;;;24.12;78.88;100427.73;5159290;55;1142969;-82
2021/07/15 10:29:36;;;;;;;29.37;15.03;;;;;;;24.25;78.68;100418.28;5127662;56;1143194;-78
2021/07/15 10:34:44;;;;;;;22.82;12.00;;;;;;;24.46;79.14;100407.72;5117711;56;1142997;-80
2021/07/15 10:39:50;;;;;;;22.50;12.67;;;;;;;24.63;78.43;100418.90;5174474;56;1142889;-81
2021/07/15 10:44:56;;;;;;;27.33;15.67;;;;;;;24.61;77.69;100424.52;5180840;55;1142864;-82
2021/07/15 10:50:03;;;;;;;25.82;12.63;;;;;;;24.65;77.93;100417.65;5137753;55;1142999;-81
2021/07/15 10:55:10;;;;;;;23.30;12.73;;;;;;;24.76;77.45;100405.33;5182606;56;1143136;-80
2021/07/15 11:00:30;;;;;;;26.00;12.53;;;;;;;24.84;76.91;100414.05;5165595;56;1143108;-81
2021/07/15 11:05:42;;;;;;;24.65;12.37;;;;;;;24.90;76.47;100401.55;5105998;56;1142985;-78
2021/07/15 11:10:52;;;;;;;19.97;12.50;;;;;;;25.07;76.96;100393.77;5112315;56;1142953;-80
2021/07/15 11:15:58;;;;;;;28.95;11.85;;;;;;;25.23;76.38;100390.55;5102875;57;1143031;-80
2021/07/15 11:21:31;;;;;;;17.32;11.20;;;;;;;25.29;75.61;100383.45;5104995;57;1143120;-81
2021/07/15 11:26:43;;;;;;;23.60;11.03;;;;;;;25.29;74.46;100390.21;5102671;57;1143152;-80
2021/07/15 11:31:51;;;;;;;22.53;11.60;;;;;;;25.37;75.08;100375.87;5107083;57;1142953;-79
2021/07/15 11:37:07;;;;;;;22.95;12.45;;;;;;;25.53;74.80;100388.05;5178171;56;1143034;-78
2021/07/15 11:42:24;;;;;;;23.25;12.15;;;;;;;25.60;74.01;100394.27;5194462;55;1142993;-80
2021/07/15 11:47:56;;;;;;;23.00;11.73;;;;;;;25.60;73.80;100409.16;5213930;55;1142968;-80
2021/07/15 11:53:24;;;;;;;22.70;12.33;;;;;;;25.51;72.95;100418.06;5215122;55;1143211;-80
2021/07/15 11:58:46;;;;;;;32.03;15.05;;;;;;;25.35;72.54;100423.20;5222326;55;1143306;-83
2021/07/15 12:04:10;;;;;;;23.90;15.25;;;;;;;25.19;73.29;100411.83;5185947;55;1143188;-78
2021/07/15 12:09:17;;;;;;;22.40;15.32;;;;;;;25.12;73.87;100365.53;5244755;55;1143322;-78
2021/07/15 12:14:23;;;;;;;34.43;16.73;;;;;;;25.16;74.47;100345.95;5236689;55;1143351;-78
2021/07/15 12:19:28;;;;;;;30.45;15.90;;;;;;;25.29;74.04;100405.10;5236729;55;1142987;-78
2021/07/15 12:24:34;;;;;;;28.67;17.82;;;;;;;25.29;73.79;100400.52;5237738;55;1143082;-80
2021/07/15 12:29:56;;;;;;;29.92;17.15;;;;;;;25.27;73.70;100427.50;5249592;55;1143024;-81
2021/07/15 12:35:14;;;;;;;29.72;17.23;;;;;;;25.22;73.73;100413.25;5215907;55;1142907;-80
2021/07/15 12:40:22;;;;;;;25.45;18.73;;;;;;;25.16;73.88;100420.91;5247571;55;1142944;-80
2021/07/15 12:45:29;;;;;;;26.80;17.23;;;;;;;25.16;73.88;100420.91;5211267;55;1143142;-78
2021/07/15 12:50:36;;;;;;;30.52;17.85;;;;;;;25.23;73.67;100404.91;5228540;55;1142994;-79
2021/07/15 12:55:43;;;;;;;35.17;19.60;;;;;;;25.32;73.46;100404.67;5228362;55;1142975;-79
2021/07/15 13:00:50;;;;;;;26.27;19.05;;;;;;;25.41;73.54;100410.13;5227514;55;1143154;-79
2021/07/15 13:05:56;;;;;;;27.87;16.87;;;;;;;25.53;72.90;100398.36;5157479;56;1143331;-79
2021/07/15 13:16:13;;;;;;;27.37;17.92;;;;;;;25.91;73.58;100394.24;5157814;56;1143135;-82
2021/07/15 13:21:29;;;;;;;23.70;15.50;;;;;;;26.06;72.47;100378.99;5229780;55;1143118;-80
2021/07/15 13:26:48;;;;;;;20.85;14.63;;;;;;;26.21;71.56;100381.34;5248012;55;1142929;-79
2021/07/15 13:31:53;;;;;;;23.05;13.75;;;;;;;26.39;71.40;100373.26;5229752;55;1142963;-79
2021/07/15 13:37:01;;;;;;;29.48;13.95;;;;;;;26.52;71.34;100366.84;5157258;56;1142976;-78
2021/07/15 13:42:13;;;;;;;21.33;12.93;;;;;;;26.71;71.15;100365.78;5245603;55;1142933;-79
2021/07/15 13:47:25;;;;;;;24.55;14.78;;;;;;;26.86;69.89;100355.87;5245664;55;1142857;-80
2021/07/15 13:52:33;;;;;;;18.48;12.50;;;;;;;27.00;70.07;100346.53;5246031;55;1143153;-82
2021/07/15 13:57:43;;;;;;;17.85;11.53;;;;;;;27.09;68.76;100336.16;5246206;54;1142941;-78
2021/07/15 14:02:53;;;;;;;19.48;12.58;;;;;;;27.15;69.93;100333.36;5239142;55;1143087;-79
2021/07/15 14:08:03;;;;;;;26.55;11.97;;;;;;;27.34;70.01;100324.61;5244975;55;1142963;-80
2021/07/15 14:13:10;;;;;;;20.60;14.23;;;;;;;27.44;68.86;100319.95;5133644;55;1143302;-81
2021/07/15 14:18:28;;;;;;;30.37;13.83;;;;;;;27.56;68.36;100317.57;5072802;56;1142876;-82
2021/07/15 14:23:35;;;;;;;18.25;12.63;;;;;;;27.64;68.47;100308.26;5072555;56;1143136;-82
2021/07/15 14:28:41;;;;;;;19.87;10.78;;;;;;;27.74;67.64;100316.64;5072186;56;1142963;-83
2021/07/15 14:33:48;;;;;;;15.20;9.90;;;;;;;27.79;66.76;100311.33;5072047;57;1143274;-79
2021/07/15 14:38:54;;;;;;;17.27;10.87;;;;;;;27.90;66.71;100320.00;5072287;56;1141133;-82
2021/07/15 14:44:00;;;;;;;15.65;9.85;;;;;;;27.85;66.53;100319.05;5074302;56;1143245;-79
2021/07/15 14:49:06;;;;;;;19.32;10.63;;;;;;;27.94;66.86;100330.70;5074531;56;1141258;-79
2021/07/15 14:54:12;;;;;;;18.07;10.50;;;;;;;28.02;66.98;100337.66;5074109;56;1143500;-83
2021/07/15 14:59:18;;;;;;;15.58;9.90;;;;;;;28.11;65.87;100332.70;5083976;55;1143138;-79
2021/07/15 15:04:27;;;;;;;26.75;10.23;;;;;;;28.05;65.24;100324.95;5119759;55;1140735;-80
2021/07/15 15:09:33;;;;;;;15.23;9.35;;;;;;;28.07;65.02;100317.92;5110262;55;1142906;-82
2021/07/15 15:14:39;;;;;;;18.02;9.00;;;;;;;28.11;64.87;100310.39;5223699;55;1140884;-78
2021/07/15 15:19:45;;;;;;;19.90;9.55;;;;;;;28.13;64.18;100307.44;5224014;55;1141010;-82
2021/07/15 15:24:51;;;;;;;16.10;9.85;;;;;;;28.13;64.22;100307.44;5224133;55;1140861;-81
2021/07/15 15:29:56;;;;;;;22.82;9.83;;;;;;;28.12;63.95;100297.63;5224046;55;1140804;-78
2021/07/15 15:35:02;;;;;;;20.88;9.85;;;;;;;28.16;64.53;100309.15;5224027;55;1140901;-83
2021/07/15 15:40:10;;;;;;;16.15;6.80;;;;;;;28.21;64.33;100312.55;5223701;55;1140968;-81
2021/07/15 15:45:16;;;;;;;19.17;9.08;;;;;;;28.29;64.08;100320.33;5220970;55;1141080;-78
2021/07/15 15:50:22;;;;;;;18.70;9.00;;;;;;;28.40;63.31;100334.98;5217320;55;1141343;-81
2021/07/15 15:55:29;;;;;;;22.75;9.73;;;;;;;28.48;64.23;100337.32;5217455;55;1141040;-81
2021/07/15 16:00:36;;;;;;;20.30;9.13;;;;;;;28.53;63.68;100346.95;5217111;55;1140840;-82
2021/07/15 16:05:43;;;;;;;24.32;9.05;;;;;;;28.65;63.22;100358.63;5216756;55;1141372;-82
2021/07/15 16:10:49;;;;;;;15.35;8.43;;;;;;;28.73;62.75;100360.13;5190738;55;1140915;-80
2021/07/15 16:15:57;;;;;;;15.95;8.68;;;;;;;28.77;61.76;100360.77;5158502;55;1141099;-83
2021/07/15 16:21:02;;;;;;;19.87;9.10;;;;;;;28.80;62.61;100369.85;5239559;55;1140835;-81
2021/07/15 16:26:08;;;;;;;13.98;7.67;;;;;;;28.81;61.81;100364.70;5170108;55;1140978;-81
2021/07/15 16:31:14;;;;;;;18.55;8.65;;;;;;;28.89;60.52;100375.73;5138616;56;1141219;-83
2021/07/15 16:36:20;;;;;;;16.20;8.65;;;;;;;28.89;60.45;100376.55;5139447;56;1141044;-80
2021/07/15 16:41:25;;;;;;;12.18;8.45;;;;;;;28.85;60.49;100374.05;5138760;56;1141127;-81
2021/07/15 16:46:31;;;;;;;24.72;10.15;;;;;;;28.89;60.41;100375.73;5139117;56;1141044;-78
2021/07/15 16:51:37;;;;;;;12.05;8.05;;;;;;;28.88;60.54;100378.98;5140437;56;1143022;-83
2021/07/15 16:56:43;;;;;;;16.37;8.45;;;;;;;28.90;60.42;100373.30;5140858;56;1141043;-80
2021/07/15 17:01:49;;;;;;;12.68;8.60;;;;;;;28.88;60.17;100367.27;5140846;56;1141089;-77
2021/07/15 17:06:55;;;;;;;16.20;8.68;;;;;;;28.84;59.88;100367.48;5140547;56;1141303;-82
2021/07/15 17:12:02;;;;;;;15.23;8.85;;;;;;;28.80;59.80;100371.75;5188713;55;1141207;-80
2021/07/15 17:17:07;;;;;;;10.58;7.70;;;;;;;28.74;59.73;100373.50;5159408;55;1141063;-81
2021/07/15 17:22:13;;;;;;;15.08;7.70;;;;;;;28.65;59.18;100358.09;5158096;55;1141007;-82
2021/07/15 17:27:19;;;;;;;11.10;7.70;;;;;;;28.63;59.57;100352.06;5157892;55;1141031;-81
2021/07/15 17:32:24;;;;;;;16.73;7.87;;;;;;;28.62;58.88;100343.61;5169283;55;1141080;-81
2021/07/15 17:37:30;;;;;;;13.00;7.87;;;;;;;28.53;58.53;100337.44;5124707;56;1141009;-80
2021/07/15 17:42:36;;;;;;;15.08;7.87;;;;;;;28.39;58.87;100338.24;5134653;56;1140948;-80
2021/07/15 17:47:42;;;;;;;13.40;8.08;;;;;;;28.32;59.35;100341.08;5108126;55;1140924;-81
2021/07/15 17:52:48;;;;;;;14.47;8.80;;;;;;;28.29;59.99;100357.05;5119825;56;1141298;-78
2021/07/15 17:57:58;;;;;;;23.67;10.25;;;;;;;28.25;60.28;100347.73;5134117;55;1141021;-80
2021/07/15 18:03:04;;;;;;;12.47;9.08;;;;;;;28.23;60.56;100348.50;5151931;55;1143374;-82
2021/07/15 18:08:09;;;;;;;17.77;8.20;;;;;;;28.17;60.70;100354.84;5090164;56;1140969;-78
2021/07/15 18:13:15;;;;;;;12.65;8.58;;;;;;;28.15;60.87;100346.09;5180121;55;1140808;-82
2021/07/15 18:18:23;;;;;;;10.85;8.13;;;;;;;28.09;60.90;100348.42;5153190;56;1140908;-82
2021/07/15 18:23:30;;;;;;;22.93;8.93;;;;;;;28.02;61.25;100355.33;5167642;55;1140837;-82
2021/07/15 18:28:35;;;;;;;21.62;10.85;;;;;;;27.96;61.45;100354.38;5148389;55;1141029;-78
2021/07/15 18:33:41;;;;;;;15.70;9.93;;;;;;;27.79;61.85;100354.81;5167514;55;1142816;-85
2021/07/15 18:38:47;;;;;;;17.65;10.50;;;;;;;27.64;62.44;100358.00;5168755;55;1140793;-81
2021/07/15 18:43:53;;;;;;;22.45;9.93;;;;;;;27.60;63.28;100356.80;5176136;55;1143137;-79
2021/07/15 18:48:59;;;;;;;32.38;16.12;;;;;;;27.61;63.47;100367.97;5163338;55;1140809;-85
2021/07/15 18:54:05;;;;;;;32.20;17.45;;;;;;;27.58;63.75;100378.47;5170981;55;1143166;-79
2021/07/15 18:59:11;;;;;;;27.65;13.00;;;;;;;27.47;64.04;100380.61;5089057;56;1142828;-82
2021/07/15 19:04:17;;;;;;;34.38;18.37;;;;;;;27.38;64.39;100377.38;5106967;56;1143035;-85
2021/07/15 19:09:22;;;;;;;26.62;16.27;;;;;;;27.37;64.50;100375.73;5067756;56;1142916;-82
2021/07/15 19:14:28;;;;;;;25.85;16.05;;;;;;;27.30;64.59;100383.16;5075818;55;1143181;-78
2021/07/15 19:19:34;;;;;;;30.27;14.10;;;;;;;27.09;65.10;100393.17;5084985;56;1142910;-81
2021/07/15 19:24:40;;;;;;;37.83;14.45;;;;;;;27.02;66.05;100401.42;5084313;56;1142971;-85
2021/07/15 19:29:46;;;;;;;28.57;14.63;;;;;;;26.77;66.09;100404.20;5110867;55;1143072;-81
2021/07/15 19:34:52;;;;;;;47.35;15.95;;;;;;;26.54;66.37;100414.92;5114895;55;1143059;-78
2021/07/15 19:39:58;;;;;;;54.73;16.27;;;;;;;26.33;66.74;100412.64;5084829;56;1142944;-82
2021/07/15 19:45:08;;;;;;;42.23;15.03;;;;;;;26.19;67.49;100406.49;5084781;56;1142892;-80
2021/07/15 19:50:17;;;;;;;28.35;15.38;;;;;;;26.24;68.12;100411.55;5075342;56;1143315;-84
2021/07/15 19:55:24;;;;;;;26.02;13.88;;;;;;;26.22;68.19;100421.80;5097351;55;1143161;-80
2021/07/15 20:00:30;;;;;;;22.25;12.10;;;;;;;26.20;68.49;100429.84;5113997;55;1143363;-81
2021/07/15 20:05:36;;;;;;;20.37;12.40;;;;;;;26.24;68.74;100431.06;5132918;55;1142944;-82
2021/07/15 20:10:43;;;;;;;29.00;13.93;;;;;;;26.26;68.75;100428.44;5132581;55;1143152;-83
2021/07/15 20:15:49;;;;;;;19.80;12.23;;;;;;;26.11;68.29;100441.51;5121311;56;1143076;-82
2021/07/15 20:20:55;;;;;;;21.77;14.30;;;;;;;25.89;68.46;100431.57;5122771;56;1143076;-81
2021/07/15 20:26:02;;;;;;;30.52;14.33;;;;;;;25.74;69.34;100440.55;5124332;56;1143035;-80
2021/07/15 20:31:07;;;;;;;34.25;16.95;;;;;;;25.72;69.55;100445.88;5118264;56;1143124;-83
2021/07/15 20:36:13;;;;;;;37.33;16.05;;;;;;;25.59;69.82;100448.13;5126325;56;1143195;-81
2021/07/15 20:41:21;;;;;;;48.20;20.65;;;;;;;25.59;70.18;100440.00;5116565;56;1142930;-82
2021/07/15 20:46:26;;;;;;;50.60;27.80;;;;;;;25.60;70.59;100448.44;5114047;56;1143149;-83
2021/07/15 20:51:32;;;;;;;31.65;20.32;;;;;;;25.63;70.57;100449.91;5176259;55;1142864;-79
2021/07/15 20:56:38;;;;;;;39.70;23.00;;;;;;;25.57;69.92;100450.22;5223447;55;1142929;-80
2021/07/15 21:01:44;;;;;;;41.40;21.15;;;;;;;25.35;69.81;100450.27;5223456;55;1142793;-80
2021/07/15 21:06:50;;;;;;;31.70;17.32;;;;;;;25.18;70.51;100454.00;5223697;55;1143259;-78
2021/07/15 21:11:56;;;;;;;42.23;24.72;;;;;;;25.22;71.37;100451.14;5165153;55;1143022;-81
2021/07/15 21:17:01;;;;;;;33.65;16.85;;;;;;;25.23;71.34;100468.53;5124595;56;1143204;-80
2021/07/15 21:22:07;;;;;;;36.97;17.67;;;;;;;25.01;70.67;100478.02;5193731;55;1143222;-79
2021/07/15 21:27:13;;;;;;;39.35;19.05;;;;;;;24.84;70.86;100471.37;5227714;55;1142904;-84
2021/07/15 21:32:19;;;;;;;27.35;16.12;;;;;;;24.81;71.84;100484.80;5238341;55;1143220;-80
2021/07/15 21:37:25;;;;;;;30.23;16.82;;;;;;;24.83;72.10;100488.66;5238341;55;1142995;-78
2021/07/15 21:42:31;;;;;;;32.73;18.42;;;;;;;24.66;71.78;100494.20;5238479;55;1143074;-84
2021/07/15 21:47:37;;;;;;;36.25;17.07;;;;;;;24.62;72.29;100496.50;5246846;55;1143006;-79
2021/07/15 21:52:46;;;;;;;35.23;16.67;;;;;;;24.58;72.11;100493.92;5239640;55;1142938;-84
2021/07/15 21:57:51;;;;;;;33.30;18.32;;;;;;;24.37;71.88;100499.55;5251231;55;1143136;-81
2021/07/15 22:02:57;;;;;;;31.05;19.62;;;;;;;24.07;72.27;100507.22;5241175;55;1143042;-81
2021/07/15 22:08:04;;;;;;;40.10;20.10;;;;;;;24.04;73.10;100498.17;5257550;55;1142926;-84
2021/07/15 22:13:11;;;;;;;37.80;19.48;;;;;;;24.09;73.58;100507.33;5186504;55;1143129;-87
2021/07/15 22:18:17;;;;;;;31.95;17.45;;;;;;;24.16;73.79;100502.75;5169632;55;1142873;-81
2021/07/15 22:23:23;;;;;;;39.98;20.52;;;;;;;24.16;73.74;100501.91;5166929;55;1143126;-84
2021/07/15 22:28:30;;;;;;;37.03;20.23;;;;;;;24.25;73.70;100509.34;5157930;55;1142963;-84
2021/07/15 22:33:36;;;;;;;33.45;20.35;;;;;;;24.12;72.97;100508.80;5158157;55;1142916;-82
2021/07/15 22:38:41;;;;;;;42.90;24.37;;;;;;;23.89;73.36;100510.53;5158154;55;1142860;-85
2021/07/15 22:43:47;;;;;;;40.38;21.23;;;;;;;23.90;74.29;100523.00;5160134;55;1143208;-79
2021/07/15 22:48:53;;;;;;;39.10;20.80;;;;;;;23.98;74.24;100521.47;5158875;55;1142931;-81
2021/07/15 22:53:59;;;;;;;30.75;17.85;;;;;;;24.04;74.28;100517.92;5158351;55;1143400;-83
2021/07/15 22:59:05;;;;;;;29.45;15.28;;;;;;;24.07;74.30;100525.63;5164320;55;1143456;-84
2021/07/15 23:04:10;;;;;;;22.95;14.10;;;;;;;24.11;74.36;100526.05;5170407;54;1142917;-79